Time;durP1;ratioP1;P1;durP2;ratioP2;P2;SDS_P1;SDS_P2;PMS_P1;PMS_P2;Temp;Humidity;BMP_temperature;BMP_pressure;BME280_temperature;BME280_humidity;BME280_pressure;Samples;Min_cycle;Max_cycle;Signal;HPM_P1;HPM_P2
2023/01/30 00:00:59;;;;;;;0.73;0.50;;;;;;;6.89;79.34;100979.28;5023932;28;20025;-60
2023/01/30 00:03:25;;;;;;;1.15;0.70;;;;;;;6.84;79.52;100974.50;5014825;28;20033;-61
2023/01/30 00:05:52;;;;;;;0.60;0.57;;;;;;;6.90;79.19;100982.78;5016543;28;20042;-63
2023/01/30 00:08:19;;;;;;;0.55;0.30;;;;;;;6.91;78.15;100971.94;5014647;28;20022;-53
2023/01/30 00:10:45;;;;;;;0.40;0.40;;;;;;;6.88;77.20;100967.81;5027208;28;20112;-53
2023/01/30 00:13:13;;;;;;;0.60;0.40;;;;;;;6.94;76.95;100968.09;5033067;28;20022;-54
2023/01/30 00:15:40;;;;;;;1.20;0.40;;;;;;;6.94;76.05;100970.75;5029991;28;20041;-53
2023/01/30 00:18:06;;;;;;;0.85;0.50;;;;;;;7.04;75.59;100972.16;5029897;28;20029;-53
2023/01/30 00:20:33;;;;;;;0.90;0.70;;;;;;;7.01;76.03;100980.53;5020063;28;20037;-54
2023/01/30 00:23:00;;;;;;;0.80;0.50;;;;;;;6.96;75.17;100988.22;5014380;28;20022;-53
2023/01/30 00:25:28;;;;;;;0.52;0.50;;;;;;;7.01;75.21;100979.69;5029734;28;20037;-54
2023/01/30 00:27:55;;;;;;;0.68;0.57;;;;;;;6.92;74.48;100976.25;5030233;28;20076;-64
2023/01/30 00:30:21;;;;;;;0.30;0.30;;;;;;;7.00;74.48;100978.03;5034254;28;20044;-63
2023/01/30 00:32:52;;;;;;;0.95;0.40;;;;;;;7.10;74.29;100974.09;5015150;28;20037;-64
2023/01/30 00:35:18;;;;;;;0.63;0.40;;;;;;;7.09;74.38;100975.13;5025310;28;20443;-64
2023/01/30 00:37:45;;;;;;;0.73;0.60;;;;;;;7.06;74.11;100972.00;5022890;28;20022;-64
2023/01/30 00:40:11;;;;;;;0.90;0.50;;;;;;;7.06;74.51;100967.50;5015855;28;20109;-64
2023/01/30 00:48:07;;;;;;;0.60;0.60;;;;;;;7.24;74.33;100971.66;5033672;28;20040;-65
2023/01/30 00:50:41;;;;;;;0.60;0.60;;;;;;;7.29;73.67;100969.28;5021154;28;20023;-66
2023/01/30 00:53:10;;;;;;;0.68;0.60;;;;;;;7.23;72.93;100980.66;5030544;28;20064;-59
2023/01/30 00:55:36;;;;;;;0.70;0.60;;;;;;;7.28;73.32;100975.63;5031533;28;20028;-55
2023/01/30 00:58:02;;;;;;;0.55;0.50;;;;;;;7.29;71.73;100985.28;5031690;28;20085;-55
2023/01/30 01:00:29;;;;;;;1.08;0.90;;;;;;;7.24;72.94;100991.13;5033693;28;20052;-55
2023/01/30 01:02:55;;;;;;;0.50;0.43;;;;;;;7.23;72.13;100988.66;5026391;28;20026;-55
2023/01/30 01:05:21;;;;;;;1.15;0.68;;;;;;;7.27;72.07;100993.41;5013225;28;20133;-55
2023/01/30 01:07:47;;;;;;;0.50;0.50;;;;;;;7.34;71.47;100990.88;5020864;28;20022;-55
2023/01/30 01:10:15;;;;;;;0.75;0.50;;;;;;;7.26;70.95;100993.59;5033604;28;20080;-53
2023/01/30 01:12:45;;;;;;;0.55;0.40;;;;;;;7.29;71.03;100982.59;5033306;28;20036;-54
2023/01/30 01:15:13;;;;;;;0.50;0.50;;;;;;;7.39;70.47;100991.16;5033480;28;20060;-53
2023/01/30 01:17:40;;;;;;;0.80;0.50;;;;;;;7.35;70.45;100992.53;5033540;28;20037;-53
2023/01/30 01:20:09;;;;;;;0.60;0.57;;;;;;;7.31;70.90;101001.88;5033345;28;20029;-54
2023/01/30 01:22:35;;;;;;;0.90;0.57;;;;;;;7.48;70.26;100995.38;5033097;28;20033;-54
2023/01/30 01:25:02;;;;;;;0.75;0.50;;;;;;;7.52;70.75;101003.84;5033164;28;20451;-54
2023/01/30 01:27:29;;;;;;;0.60;0.60;;;;;;;7.55;70.13;100998.13;5033195;28;20423;-54
2023/01/30 01:29:55;;;;;;;1.00;0.60;;;;;;;7.52;69.84;101004.69;5033314;28;20729;-54
2023/01/30 01:32:21;;;;;;;0.70;0.60;;;;;;;7.58;69.74;101009.28;5032734;28;20034;-54
2023/01/30 01:34:48;;;;;;;1.17;0.68;;;;;;;7.50;69.51;101011.22;5032954;28;20113;-54
2023/01/30 01:37:15;;;;;;;0.88;0.60;;;;;;;7.49;70.42;101015.69;5033017;28;20037;-54
2023/01/30 01:42:32;;;;;;;1.40;0.70;;;;;;;7.57;70.57;101018.28;5030076;28;20037;-54
2023/01/30 01:45:10;;;;;;;1.17;0.73;;;;;;;7.53;70.46;101024.97;5024085;28;20049;-54
2023/01/30 01:47:59;;;;;;;1.98;0.70;;;;;;;7.58;70.08;101011.94;5030179;28;20118;-54
2023/01/30 01:50:41;;;;;;;2.08;0.70;;;;;;;7.50;70.43;101012.03;5019142;28;20022;-54
2023/01/30 01:53:09;;;;;;;0.57;0.50;;;;;;;7.37;70.90;101017.13;5014673;28;20088;-54
2023/01/30 01:55:37;;;;;;;1.00;0.80;;;;;;;7.38;71.02;101016.97;5032298;28;20029;-54
2023/01/30 01:58:37;;;;;;;3.13;0.90;;;;;;;7.54;71.22;101018.63;5032380;28;20049;-53
2023/01/30 02:01:04;;;;;;;0.80;0.43;;;;;;;7.56;69.61;101016.63;5014135;28;20030;-55
2023/01/30 02:03:36;;;;;;;0.90;0.80;;;;;;;7.65;69.70;101012.84;5032312;28;20388;-55
2023/01/30 02:06:04;;;;;;;1.02;0.70;;;;;;;7.63;70.51;101017.53;5023527;28;20050;-55
2023/01/30 02:08:36;;;;;;;0.90;0.68;;;;;;;7.72;69.70;101022.78;5012291;28;20034;-54
2023/01/30 02:11:26;;;;;;;0.57;0.55;;;;;;;7.61;70.07;101024.06;5021362;28;20083;-55
2023/01/30 02:13:52;;;;;;;1.55;0.80;;;;;;;7.74;70.17;101023.44;5031908;28;20029;-54
2023/01/30 02:16:19;;;;;;;0.82;0.80;;;;;;;7.73;69.47;101022.63;5031951;28;20072;-54
2023/01/30 02:18:47;;;;;;;1.42;0.82;;;;;;;7.60;69.96;101020.56;5032100;28;20114;-54
2023/01/30 02:21:39;;;;;;;0.95;0.70;;;;;;;7.89;68.77;101013.63;5031605;28;20037;-55
2023/01/30 02:24:50;;;;;;;0.63;0.60;;;;;;;7.75;68.48;101017.09;5014351;28;20044;-55
2023/01/30 02:27:21;;;;;;;0.60;0.60;;;;;;;7.73;68.79;101017.28;5031679;28;20044;-55
2023/01/30 02:30:14;;;;;;;1.02;0.80;;;;;;;7.72;69.34;101020.09;5031874;28;20388;-54
2023/01/30 02:32:55;;;;;;;1.65;0.77;;;;;;;7.73;69.29;101022.63;5029622;28;20488;-53
2023/01/30 02:35:43;;;;;;;0.73;0.70;;;;;;;7.64;68.65;101013.03;5031328;28;20023;-54
2023/01/30 02:38:22;;;;;;;0.77;0.57;;;;;;;7.72;69.38;101020.09;5019277;28;20033;-54
2023/01/30 02:41:17;;;;;;;0.80;0.65;;;;;;;7.90;68.19;101024.09;5012084;28;20356;-54
2023/01/30 02:43:51;;;;;;;0.60;0.60;;;;;;;7.73;68.37;101027.94;5012475;28;20097;-55
2023/01/30 02:46:21;;;;;;;0.80;0.60;;;;;;;8.10;67.08;101015.50;5012675;28;20193;-54
2023/01/30 02:49:10;;;;;;;1.35;0.60;;;;;;;7.97;67.23;101010.84;5012704;28;20511;-54
2023/01/30 02:51:38;;;;;;;0.80;0.70;;;;;;;7.99;67.32;101010.66;5025797;28;20458;-55
2023/01/30 02:54:06;;;;;;;0.95;0.70;;;;;;;7.93;67.23;101021.03;5031917;28;20472;-54
2023/01/30 02:56:48;;;;;;;2.97;0.80;;;;;;;7.84;68.33;101027.50;5031561;28;20053;-55
2023/01/30 02:59:23;;;;;;;1.20;0.80;;;;;;;7.96;68.84;101029.69;5031773;28;20057;-54
2023/01/30 03:01:52;;;;;;;1.20;0.90;;;;;;;7.76;68.85;101029.41;5031681;28;20025;-55
2023/01/30 03:04:46;;;;;;;1.92;0.77;;;;;;;7.83;69.31;101039.16;5031692;28;20112;-55
2023/01/30 03:07:33;;;;;;;1.45;0.80;;;;;;;7.99;68.92;101031.97;5031257;28;20049;-54
2023/01/30 03:10:09;;;;;;;1.35;0.90;;;;;;;8.03;68.59;101035.94;5031541;28;20041;-55
2023/01/30 03:12:49;;;;;;;;;;;;;;;7.84;69.56;101043.47;5019893;28;20029;-55
2023/01/30 03:15:31;;;;;;;2.17;1.10;;;;;;;7.86;68.43;101037.97;5022674;28;20004;-55
2023/01/30 03:17:58;;;;;;;1.40;1.30;;;;;;;7.88;67.96;101036.78;5024622;28;20038;-55
2023/01/30 03:20:25;;;;;;;1.90;1.40;;;;;;;7.81;68.73;101045.66;5019449;28;20037;-55
2023/01/30 03:22:53;;;;;;;2.35;1.60;;;;;;;7.73;68.32;101043.09;5034777;28;20033;-55
2023/01/30 03:25:27;;;;;;;2.42;1.40;;;;;;;7.92;67.42;101050.53;5035162;28;20021;-54
2023/01/30 03:27:55;;;;;;;2.15;1.20;;;;;;;7.72;66.78;101052.09;5034991;28;20026;-56
2023/01/30 03:30:24;;;;;;;1.73;1.30;;;;;;;7.77;66.21;101057.69;5034921;28;20091;-55
2023/01/30 03:32:51;;;;;;;2.55;1.33;;;;;;;8.06;65.23;101051.56;5034865;28;20022;-54
2023/01/30 03:35:17;;;;;;;2.03;1.08;;;;;;;7.78;64.55;101051.38;5035168;28;20361;-55
2023/01/30 03:37:45;;;;;;;1.88;1.25;;;;;;;7.86;64.60;101065.44;5034139;28;20026;-55
2023/01/30 03:40:13;;;;;;;1.50;0.80;;;;;;;7.87;63.90;101066.25;5035107;28;20041;-54
2023/01/30 03:42:39;;;;;;;2.08;1.15;;;;;;;7.93;63.92;101065.53;5034350;28;20056;-55
2023/01/30 03:45:06;;;;;;;0.90;0.90;;;;;;;7.90;61.43;101065.91;5035264;28;20033;-55
2023/01/30 03:47:32;;;;;;;1.05;0.85;;;;;;;7.80;62.00;101070.66;5034760;28;20037;-55
2023/01/30 03:49:58;;;;;;;1.98;1.17;;;;;;;7.71;62.87;101071.75;5034871;28;20065;-55
2023/01/30 03:52:25;;;;;;;1.08;0.80;;;;;;;7.89;61.63;101082.91;5034257;28;20067;-55
2023/01/30 03:54:51;;;;;;;0.60;0.60;;;;;;;8.06;60.32;101081.72;5034764;28;20105;-54
2023/01/30 03:57:18;;;;;;;0.73;0.60;;;;;;;8.09;60.36;101078.66;5034890;28;20037;-55
2023/01/30 03:59:47;;;;;;;1.42;0.90;;;;;;;8.18;60.38;101088.25;5034416;28;20022;-54
2023/01/30 04:02:13;;;;;;;1.63;0.80;;;;;;;8.22;59.56;101091.38;5034263;28;20022;-54
2023/01/30 04:04:40;;;;;;;2.05;0.80;;;;;;;7.98;60.11;101089.78;5034253;28;20132;-55
2023/01/30 04:07:06;;;;;;;1.20;0.73;;;;;;;8.08;60.20;101102.88;5022062;28;20093;-55
2023/01/30 04:09:32;;;;;;;0.98;0.70;;;;;;;8.27;59.44;101098.81;5015121;28;20125;-55
2023/01/30 04:11:58;;;;;;;1.02;0.70;;;;;;;8.39;58.84;101105.38;5014668;28;20121;-56
2023/01/30 04:14:25;;;;;;;1.38;0.55;;;;;;;8.37;58.87;101112.72;5016609;28;20033;-55
2023/01/30 04:16:51;;;;;;;1.15;0.73;;;;;;;8.25;59.13;101112.34;5014144;28;20030;-55
2023/01/30 04:19:17;;;;;;;0.68;0.50;;;;;;;8.22;58.29;101110.06;5014302;28;20535;-56
2023/01/30 04:21:43;;;;;;;1.05;0.70;;;;;;;8.14;59.30;101105.63;5014452;28;20032;-56
2023/01/30 04:24:10;;;;;;;0.98;0.68;;;;;;;8.50;58.03;101115.59;5014186;28;20029;-55
2023/01/30 04:26:36;;;;;;;1.58;0.90;;;;;;;8.17;59.00;101118.59;5019780;28;20017;-55
2023/01/30 04:29:02;;;;;;;1.10;0.70;;;;;;;8.41;59.17;101122.03;5033758;28;20033;-55
2023/01/30 04:31:29;;;;;;;1.50;0.70;;;;;;;8.41;59.00;101122.03;5033851;28;20484;-55
2023/01/30 04:33:55;;;;;;;1.20;0.90;;;;;;;8.62;58.43;101123.94;5033769;28;20079;-54
2023/01/30 04:36:21;;;;;;;0.75;0.60;;;;;;;8.72;58.41;101127.97;5033849;28;20056;-54
2023/01/30 04:38:48;;;;;;;0.88;0.73;;;;;;;8.89;58.01;101119.75;5033499;28;20541;-55
2023/01/30 04:41:14;;;;;;;1.30;0.90;;;;;;;8.82;58.21;101129.50;5032197;28;20083;-56
2023/01/30 04:43:41;;;;;;;1.80;0.85;;;;;;;8.98;57.03;101123.94;5034102;28;20403;-55
2023/01/30 04:46:07;;;;;;;1.15;0.82;;;;;;;8.68;57.06;101126.69;5033641;28;20076;-55
2023/01/30 04:48:34;;;;;;;1.30;0.77;;;;;;;8.62;57.40;101123.94;5033482;28;20048;-55
2023/01/30 04:51:00;;;;;;;0.88;0.82;;;;;;;8.47;57.98;101129.28;5033644;28;20025;-55
2023/01/30 04:53:26;;;;;;;1.65;1.08;;;;;;;8.51;58.03;101132.41;5033567;28;20383;-55
2023/01/30 04:55:52;;;;;;;1.33;1.05;;;;;;;8.35;58.94;101138.72;5033500;28;20112;-55
2023/01/30 04:58:19;;;;;;;1.42;1.00;;;;;;;8.38;59.58;101141.91;5033406;28;20049;-55
2023/01/30 05:00:46;;;;;;;2.65;0.85;;;;;;;8.21;58.71;101143.84;5033059;28;20480;-55
2023/01/30 05:03:13;;;;;;;2.25;1.02;;;;;;;8.30;59.57;101144.63;5032036;28;21467;-55
2023/01/30 05:05:39;;;;;;;2.47;1.25;;;;;;;8.45;58.29;101152.66;5033101;28;20084;-54
2023/01/30 05:08:06;;;;;;;3.22;1.60;;;;;;;8.42;57.57;101145.84;5033363;28;20018;-54
2023/01/30 05:10:32;;;;;;;2.40;1.42;;;;;;;7.95;55.80;101156.81;5033142;28;20033;-55
2023/01/30 05:13:04;;;;;;;1.40;1.02;;;;;;;8.14;53.30;101158.94;5032863;28;20048;-55
2023/01/30 05:15:30;;;;;;;2.85;1.10;;;;;;;7.62;52.44;101151.75;5031467;28;20026;-54
2023/01/30 05:17:57;;;;;;;1.02;0.68;;;;;;;7.88;47.95;101166.50;5033247;28;20049;-55
2023/01/30 05:20:23;;;;;;;0.77;0.50;;;;;;;7.71;43.61;101162.34;5033021;28;20385;-55
2023/01/30 05:22:49;;;;;;;0.68;0.45;;;;;;;7.76;41.43;101160.78;5032856;28;20087;-55
2023/01/30 05:25:16;;;;;;;0.35;0.30;;;;;;;7.82;39.92;101170.72;5032765;28;20033;-55
2023/01/30 05:27:42;;;;;;;1.85;0.20;;;;;;;7.83;39.99;101164.41;5033037;28;20104;-55
2023/01/30 05:30:09;;;;;;;0.63;0.47;;;;;;;7.79;38.94;101170.28;5032448;28;20029;-54
2023/01/30 05:32:35;;;;;;;0.40;0.40;;;;;;;7.88;38.50;101177.19;5032432;28;20044;-55
2023/01/30 05:35:02;;;;;;;0.55;0.22;;;;;;;7.83;37.79;101180.41;5031449;28;20038;-55
2023/01/30 05:37:28;;;;;;;0.30;0.30;;;;;;;7.85;37.01;101180.22;5032830;28;20498;-54
2023/01/30 05:39:54;;;;;;;0.10;0.10;;;;;;;7.80;36.67;101185.25;5032026;28;20060;-55
2023/01/30 05:42:21;;;;;;;0.30;0.30;;;;;;;7.67;36.15;101184.03;5032621;28;20033;-54
2023/01/30 05:44:47;;;;;;;0.50;0.20;;;;;;;7.64;35.76;101194.19;5033239;28;20394;-55
2023/01/30 05:47:13;;;;;;;0.43;0.30;;;;;;;7.67;35.06;101201.84;5032915;28;20491;-54
2023/01/30 05:49:39;;;;;;;0.30;0.30;;;;;;;7.58;35.41;101211.72;5022399;28;20034;-55
2023/01/30 05:52:06;;;;;;;0.40;0.30;;;;;;;7.54;36.38;101214.91;5012406;28;20515;-55
2023/01/30 05:54:34;;;;;;;0.47;0.40;;;;;;;7.61;35.57;101206.06;5012625;28;20108;-55
2023/01/30 05:57:00;;;;;;;0.60;0.40;;;;;;;7.50;34.98;101206.47;5012630;28;20033;-55
2023/01/30 05:59:26;;;;;;;0.30;0.30;;;;;;;7.61;34.62;101219.38;5012284;28;20030;-55
2023/01/30 06:01:53;;;;;;;0.20;0.20;;;;;;;7.41;34.12;101213.66;5012284;28;20034;-54
2023/01/30 06:04:19;;;;;;;0.22;0.20;;;;;;;7.61;34.38;101213.22;5012427;28;20037;-55
2023/01/30 06:06:47;;;;;;;0.30;0.30;;;;;;;7.59;34.34;101217.88;5012310;28;20112;-55
2023/01/30 06:09:14;;;;;;;0.50;0.20;;;;;;;7.41;33.88;101226.16;5012337;28;20076;-55
2023/01/30 06:11:40;;;;;;;0.20;0.20;;;;;;;7.52;33.93;101227.59;5012356;28;20109;-54
2023/01/30 06:14:06;;;;;;;2.70;0.85;;;;;;;7.54;33.93;101228.22;5013458;28;20386;-55
2023/01/30 06:16:32;;;;;;;0.73;0.28;;;;;;;7.61;34.37;101238.03;5031537;28;20506;-55
2023/01/30 06:18:59;;;;;;;0.28;0.25;;;;;;;7.54;34.62;101241.56;5032015;28;20037;-55
2023/01/30 06:21:25;;;;;;;0.70;0.30;;;;;;;7.51;34.12;101237.41;5031856;28;20021;-55
2023/01/30 06:23:51;;;;;;;0.28;0.20;;;;;;;7.53;34.04;101242.56;5031563;28;20029;-55
2023/01/30 06:26:18;;;;;;;0.98;0.25;;;;;;;7.52;34.78;101254.22;5031808;28;20390;-55
2023/01/30 06:28:44;;;;;;;0.50;0.30;;;;;;;7.31;35.06;101246.84;5031998;28;20025;-56
2023/01/30 06:31:10;;;;;;;0.60;0.30;;;;;;;7.28;35.78;101257.88;5031499;28;20180;-55
2023/01/30 06:33:36;;;;;;;0.63;0.30;;;;;;;7.30;34.80;101261.16;5031650;28;20040;-55
2023/01/30 06:36:03;;;;;;;0.30;0.30;;;;;;;7.19;35.33;101272.22;5031903;28;20139;-55
2023/01/30 06:38:29;;;;;;;0.65;0.25;;;;;;;7.29;34.80;101270.16;5031520;28;20036;-55
2023/01/30 06:40:56;;;;;;;0.63;0.25;;;;;;;7.35;35.08;101272.13;5029020;28;20037;-55
2023/01/30 06:43:22;;;;;;;0.38;0.30;;;;;;;7.26;35.71;101281.16;5031613;28;20025;-55
2023/01/30 06:45:48;;;;;;;1.52;0.50;;;;;;;7.27;35.78;101285.47;5031526;28;20037;-55
2023/01/30 06:48:14;;;;;;;0.65;0.30;;;;;;;7.28;35.38;101295.16;5031744;28;20158;-54
2023/01/30 06:50:40;;;;;;;0.20;0.20;;;;;;;7.22;35.93;101291.34;5031248;28;20427;-55
2023/01/30 06:53:07;;;;;;;0.20;0.20;;;;;;;7.26;36.43;101299.78;5030615;28;20599;-54
2023/01/30 06:55:35;;;;;;;2.58;0.30;;;;;;;7.17;36.37;101301.69;5031155;28;20056;-55
2023/01/30 06:58:06;;;;;;;1.75;0.20;;;;;;;7.18;36.83;101311.31;5031634;28;20072;-56
2023/01/30 07:00:34;;;;;;;0.20;0.20;;;;;;;7.25;37.11;101311.44;5031039;28;20064;-56
2023/01/30 07:03:00;;;;;;;0.85;0.30;;;;;;;7.25;37.03;101314.13;5031358;28;20051;-55
2023/01/30 07:05:30;;;;;;;1.02;0.32;;;;;;;7.10;37.46;101314.81;5031125;28;20037;-54
2023/01/30 07:07:57;;;;;;;1.00;0.30;;;;;;;7.19;37.25;101310.31;5031217;28;20108;-54
2023/01/30 07:10:25;;;;;;;0.90;0.28;;;;;;;7.17;35.93;101311.50;5031089;28;20496;-55
2023/01/30 07:12:52;;;;;;;3.75;0.57;;;;;;;7.27;35.60;101304.09;5031510;28;20101;-55
2023/01/30 07:15:18;;;;;;;0.50;0.22;;;;;;;7.06;36.38;101302.88;5031196;28;20380;-56
2023/01/30 07:17:44;;;;;;;0.30;0.20;;;;;;;7.19;36.55;101301.50;5031285;28;20022;-54
2023/01/30 07:20:11;;;;;;;0.55;0.40;;;;;;;7.17;35.11;101301.69;5031328;28;20026;-55
2023/01/30 07:22:37;;;;;;;0.38;0.20;;;;;;;7.10;34.39;101304.16;5031017;28;20032;-55
2023/01/30 07:25:04;;;;;;;0.20;0.20;;;;;;;7.11;33.22;101305.03;5031084;28;20025;-55
2023/01/30 07:27:30;;;;;;;0.47;0.30;;;;;;;7.06;33.36;101323.34;5031245;28;20029;-55
2023/01/30 07:29:57;;;;;;;0.52;0.20;;;;;;;6.99;33.52;101311.69;5030969;28;20030;-55
2023/01/30 07:32:23;;;;;;;0.40;0.20;;;;;;;7.01;34.18;101325.69;5031143;28;20472;-56
2023/01/30 07:34:49;;;;;;;0.47;0.25;;;;;;;7.10;34.32;101328.13;5030975;28;20116;-56
2023/01/30 07:37:15;;;;;;;0.80;0.32;;;;;;;7.14;32.81;101328.63;5031227;28;20068;-55
2023/01/30 07:39:42;;;;;;;0.60;0.30;;;;;;;7.03;33.32;101335.16;5030747;28;20031;-55
2023/01/30 07:42:08;;;;;;;0.85;0.38;;;;;;;6.92;32.54;101332.00;5030805;28;20033;-55
2023/01/30 07:44:34;;;;;;;0.20;0.20;;;;;;;7.04;32.83;101325.31;5031130;28;20112;-55
2023/01/30 07:47:01;;;;;;;0.75;0.28;;;;;;;7.02;32.49;101327.34;5030929;28;20483;-56
2023/01/30 07:49:27;;;;;;;0.68;0.30;;;;;;;6.91;32.66;101331.19;5031013;28;20026;-56
2023/01/30 07:51:53;;;;;;;1.40;0.22;;;;;;;6.98;32.33;101323.34;5030510;28;20030;-56
2023/01/30 07:54:19;;;;;;;1.30;0.30;;;;;;;7.06;31.60;101326.00;5031135;28;20113;-56
2023/01/30 07:56:46;;;;;;;0.25;0.15;;;;;;;6.96;33.01;101334.19;5031007;28;20030;-56
2023/01/30 07:59:12;;;;;;;0.73;0.30;;;;;;;7.04;32.57;101328.81;5030847;28;20045;-56
2023/01/30 08:01:38;;;;;;;0.60;0.30;;;;;;;6.92;32.85;101338.16;5030291;28;20164;-56
2023/01/30 08:04:04;;;;;;;1.63;0.30;;;;;;;6.84;31.79;101332.88;5033068;28;20079;-55
2023/01/30 08:06:31;;;;;;;0.70;0.35;;;;;;;6.74;32.20;101342.88;5026682;28;20040;-56
2023/01/30 08:08:57;;;;;;;0.35;0.20;;;;;;;6.88;31.64;101343.03;5014483;28;20602;-55
2023/01/30 08:11:23;;;;;;;0.75;0.43;;;;;;;6.84;31.65;101347.00;5014213;28;20050;-56
2023/01/30 08:13:49;;;;;;;0.32;0.30;;;;;;;6.84;31.80;101351.50;5014598;28;20454;-56
2023/01/30 08:16:16;;;;;;;0.57;0.40;;;;;;;6.92;31.64;101353.31;5014485;28;20029;-56
2023/01/30 08:18:43;;;;;;;1.75;0.20;;;;;;;6.87;31.33;101351.97;5014620;28;20026;-56
2023/01/30 08:21:09;;;;;;;0.20;0.15;;;;;;;6.94;31.44;101354.81;5014113;28;20026;-56
2023/01/30 08:23:35;;;;;;;3.95;0.50;;;;;;;6.84;30.57;101354.16;5014225;28;20479;-56
2023/01/30 08:26:03;;;;;;;0.45;0.30;;;;;;;6.85;31.76;101355.81;5014172;28;20473;-54
2023/01/30 08:28:30;;;;;;;1.15;0.20;;;;;;;6.81;30.53;101351.81;5014432;28;20025;-55
2023/01/30 08:30:57;;;;;;;0.68;0.22;;;;;;;6.91;31.43;101351.66;5014155;28;20118;-55
2023/01/30 08:33:24;;;;;;;0.50;0.40;;;;;;;6.91;30.97;101357.81;5016797;28;20102;-56
2023/01/30 08:35:50;;;;;;;0.30;0.30;;;;;;;6.88;31.84;101353.66;5033700;28;20033;-56
2023/01/30 08:38:17;;;;;;;0.20;0.20;;;;;;;6.75;32.10;101363.16;5034007;28;20037;-56
2023/01/30 08:40:44;;;;;;;0.32;0.28;;;;;;;6.64;31.55;101355.50;5033604;28;20112;-56
2023/01/30 08:43:10;;;;;;;0.40;0.30;;;;;;;6.82;31.67;101354.31;5033840;28;20108;-56
2023/01/30 08:45:36;;;;;;;0.32;0.30;;;;;;;6.80;31.99;101347.50;5033791;28;20121;-55
2023/01/30 08:48:05;;;;;;;0.70;0.20;;;;;;;6.69;32.46;101354.00;5033710;28;20021;-55
2023/01/30 08:50:32;;;;;;;0.30;0.20;;;;;;;6.73;32.47;101349.19;5033542;28;20025;-56
2023/01/30 08:53:04;;;;;;;0.55;0.30;;;;;;;6.65;31.56;101357.16;5033572;28;20487;-56
2023/01/30 08:55:30;;;;;;;0.52;0.30;;;;;;;6.53;32.23;101360.16;5033567;28;20033;-56
2023/01/30 08:57:57;;;;;;;0.30;0.30;;;;;;;6.51;32.43;101370.16;5033619;28;20112;-55
2023/01/30 09:00:23;;;;;;;0.45;0.22;;;;;;;6.45;32.32;101372.66;5033276;28;20101;-56
2023/01/30 09:02:56;;;;;;;0.10;0.10;;;;;;;6.59;32.03;101383.44;5033405;28;20076;-55
2023/01/30 09:05:22;;;;;;;0.38;0.20;;;;;;;6.54;32.52;101384.94;5033156;28;20041;-56
2023/01/30 09:07:49;;;;;;;0.43;0.20;;;;;;;6.43;33.06;101383.44;5014902;28;20125;-56
2023/01/30 09:10:16;;;;;;;0.20;0.20;;;;;;;6.37;33.46;101386.75;5013127;28;20385;-55
2023/01/30 09:12:42;;;;;;;0.57;0.20;;;;;;;6.46;32.50;101391.09;5013535;28;20022;-56
2023/01/30 09:15:10;;;;;;;0.30;0.25;;;;;;;6.31;31.72;101372.28;5012674;28;20026;-56
2023/01/30 09:17:37;;;;;;;2.17;0.50;;;;;;;6.31;30.84;101376.78;5012975;28;20056;-56
2023/01/30 09:20:05;;;;;;;1.23;0.50;;;;;;;6.42;31.01;101371.13;5013256;28;20105;-56
2023/01/30 09:22:32;;;;;;;1.65;0.70;;;;;;;6.39;31.62;101374.13;5013130;28;20088;-56
2023/01/30 09:24:58;;;;;;;3.10;1.40;;;;;;;6.26;32.35;101384.41;5013398;28;20491;-56
2023/01/30 09:27:24;;;;;;;2.70;1.10;;;;;;;6.38;32.47;101383.09;5013124;28;20022;-56
2023/01/30 09:29:50;;;;;;;0.50;0.50;;;;;;;6.34;33.13;101377.28;5012944;28;20113;-56
2023/01/30 09:32:17;;;;;;;0.60;0.30;;;;;;;6.39;32.34;101382.13;5012502;28;20030;-56
2023/01/30 09:34:43;;;;;;;0.30;0.30;;;;;;;6.34;31.95;101389.75;5013114;28;20037;-56
2023/01/30 09:37:09;;;;;;;0.40;0.20;;;;;;;6.23;31.79;101390.06;5012959;28;20064;-56
2023/01/30 09:39:35;;;;;;;0.20;0.20;;;;;;;6.06;32.76;101390.03;5012883;28;20088;-56
2023/01/30 09:42:04;;;;;;;0.20;0.20;;;;;;;6.08;30.96;101400.50;5012647;28;20506;-55
2023/01/30 09:45:16;;;;;;;0.35;0.20;;;;;;;6.17;29.62;101399.53;5012786;28;20038;-56
2023/01/30 09:47:57;;;;;;;0.20;0.20;;;;;;;6.08;30.10;101398.69;5006614;28;20041;-55
2023/01/30 09:50:56;;;;;;;0.30;0.20;;;;;;;6.15;29.41;101406.81;5012604;28;20033;-55
2023/01/30 09:53:41;;;;;;;0.10;0.10;;;;;;;6.11;29.95;101407.31;5013045;28;20483;-56
2023/01/30 09:56:07;;;;;;;0.50;0.40;;;;;;;6.26;29.83;101411.00;5012479;28;20032;-55
2023/01/30 09:58:54;;;;;;;2.67;0.20;;;;;;;6.20;30.07;101401.84;5012565;28;20032;-55
2023/01/30 10:01:51;;;;;;;0.17;0.10;;;;;;;6.16;30.01;101405.00;5012411;28;20502;-56
2023/01/30 10:04:42;;;;;;;0.25;0.20;;;;;;;6.19;29.28;101402.03;5044572;23;20048;-56
2023/01/30 10:07:11;;;;;;;0.75;0.20;;;;;;;6.19;28.44;101410.00;5039039;28;20502;-56
2023/01/30 10:10:03;;;;;;;1.70;0.40;;;;;;;6.16;29.30;101405.00;5032288;28;20034;-57
2023/01/30 10:12:42;;;;;;;1.70;0.40;;;;;;;6.14;30.00;101399.84;5032358;28;20031;-55
2023/01/30 10:15:19;;;;;;;0.65;0.20;;;;;;;6.16;29.22;101399.69;5032070;28;20139;-55
2023/01/30 10:18:02;;;;;;;0.73;0.20;;;;;;;6.12;29.09;101393.88;5031762;28;20021;-56
2023/01/30 10:20:46;;;;;;;0.35;0.30;;;;;;;5.93;30.33;101383.50;5032038;28;20434;-56
2023/01/30 10:23:24;;;;;;;1.25;0.32;;;;;;;5.87;30.77;101382.31;5032078;28;20375;-56
2023/01/30 10:25:57;;;;;;;0.75;0.43;;;;;;;5.68;31.57;101380.78;5031674;28;20058;-56
2023/01/30 10:28:42;;;;;;;1.50;0.40;;;;;;;5.63;32.28;101375.09;5031797;28;20022;-56
2023/01/30 10:31:15;;;;;;;0.40;0.40;;;;;;;5.81;32.61;101362.53;5032065;28;20076;-56
2023/01/30 10:33:49;;;;;;;0.30;0.20;;;;;;;5.92;31.95;101361.44;5031663;28;20033;-56
2023/01/30 10:36:43;;;;;;;0.32;0.30;;;;;;;5.55;32.12;101365.28;5031836;28;20499;-56
2023/01/30 10:39:40;;;;;;;0.65;0.40;;;;;;;5.67;33.70;101373.81;5031070;28;20069;-55
2023/01/30 10:42:18;;;;;;;0.50;0.30;;;;;;;5.53;34.23;101375.22;4989065;28;20500;-56
2023/01/30 10:44:45;;;;;;;0.45;0.30;;;;;;;5.64;34.22;101370.63;5031943;28;20037;-56
2023/01/30 10:47:36;;;;;;;0.80;0.38;;;;;;;5.31;35.87;101381.09;5031658;28;20049;-56
2023/01/30 10:50:14;;;;;;;0.68;0.35;;;;;;;5.26;38.42;101376.25;5031461;28;20060;-56
2023/01/30 10:52:52;;;;;;;0.80;0.50;;;;;;;4.63;40.26;101378.34;5031190;28;20029;-56
2023/01/30 10:55:41;;;;;;;0.98;0.50;;;;;;;4.73;39.48;101377.28;5031500;28;20033;-56
2023/01/30 10:58:25;;;;;;;1.10;0.40;;;;;;;4.60;38.60;101370.69;5031446;28;20021;-56
2023/01/30 11:01:10;;;;;;;3.17;1.08;;;;;;;4.50;37.72;101361.03;5031494;28;20120;-56
2023/01/30 11:03:59;;;;;;;1.92;0.70;;;;;;;4.62;37.22;101376.69;5030993;28;20045;-55
2023/01/30 11:06:25;;;;;;;1.35;0.80;;;;;;;4.61;35.92;101365.25;5017341;28;20120;-55
2023/01/30 11:08:54;;;;;;;0.60;0.50;;;;;;;4.66;34.97;101372.72;5031148;28;20116;-56
2023/01/30 11:11:32;;;;;;;0.60;0.40;;;;;;;4.66;35.03;101367.41;5030892;28;20032;-56
2023/01/30 11:14:03;;;;;;;0.93;0.32;;;;;;;4.69;34.77;101364.47;5031230;28;20176;-56
2023/01/30 11:16:32;;;;;;;1.33;0.50;;;;;;;4.71;34.40;101367.78;5031951;28;20435;-55
2023/01/30 11:19:04;;;;;;;1.10;0.47;;;;;;;4.66;34.47;101367.41;5031236;28;20021;-56
2023/01/30 11:21:31;;;;;;;1.52;0.60;;;;;;;4.68;34.84;101368.13;5030883;28;20017;-56
2023/01/30 11:24:04;;;;;;;0.30;0.30;;;;;;;4.59;33.85;101361.91;5031394;28;20519;-56
2023/01/30 11:26:36;;;;;;;0.55;0.25;;;;;;;4.62;34.23;101358.13;5031441;28;20025;-56
2023/01/30 11:29:40;;;;;;;0.45;0.30;;;;;;;4.66;34.59;101367.41;5031405;28;20515;-56
2023/01/30 11:32:22;;;;;;;0.20;0.20;;;;;;;4.68;33.97;101379.56;4969768;28;20086;-56
2023/01/30 11:35:05;;;;;;;1.00;0.30;;;;;;;4.64;34.28;101385.31;4970005;28;20118;-56
2023/01/30 11:37:40;;;;;;;0.70;0.20;;;;;;;4.82;34.26;101393.22;5012878;28;20056;-56
2023/01/30 11:40:16;;;;;;;0.30;0.15;;;;;;;4.76;34.16;101390.22;5035074;28;20387;-56
2023/01/30 11:42:48;;;;;;;0.30;0.30;;;;;;;4.70;34.40;101387.34;5034973;28;20419;-56
2023/01/30 11:45:17;;;;;;;0.30;0.30;;;;;;;4.82;33.70;101380.81;5034817;28;20025;-56
2023/01/30 11:47:56;;;;;;;0.40;0.30;;;;;;;4.70;33.64;101388.19;5034718;28;20474;-56
2023/01/30 11:50:30;;;;;;;0.88;0.60;;;;;;;4.61;33.64;101386.47;5034693;28;20029;-56
2023/01/30 11:53:03;;;;;;;0.95;0.60;;;;;;;4.55;34.76;101380.91;5034847;28;20030;-56
2023/01/30 11:55:36;;;;;;;0.43;0.30;;;;;;;4.53;34.37;101388.19;5034786;28;20040;-56
2023/01/30 11:58:08;;;;;;;1.30;0.22;;;;;;;4.62;34.83;101384.66;5034673;28;20057;-56